createdAt,value
2018-05-26T00:00:41.782Z,16.80
2018-05-26T00:03:09.263Z,16.80
2018-05-26T00:05:36.767Z,16.70
2018-05-26T00:08:05.017Z,16.50
2018-05-26T00:10:32.499Z,16.40
2018-05-26T00:13:00.773Z,16.20
2018-05-26T00:15:28.275Z,16.20
2018-05-26T00:17:55.761Z,16.20
2018-05-26T00:20:24.024Z,16.20
2018-05-26T00:22:57.264Z,16.20
2018-05-26T00:25:24.783Z,16.30
2018-05-26T00:27:52.269Z,16.30
2018-05-26T00:30:19.748Z,16.30
2018-05-26T00:32:47.280Z,16.20
2018-05-26T00:35:14.773Z,16.20
2018-05-26T00:37:42.252Z,16.20
2018-05-26T00:40:10.534Z,16.20
2018-05-26T00:42:38.015Z,16.10
2018-05-26T00:45:05.501Z,16.10
2018-05-26T00:47:33.004Z,16.00
2018-05-26T00:50:00.484Z,16.10
2018-05-26T00:52:27.977Z,16.10
2018-05-26T00:54:55.474Z,16.10
2018-05-26T00:57:22.956Z,16.10
2018-05-26T00:59:50.464Z,16.00
2018-05-26T01:02:17.955Z,15.90
2018-05-26T01:04:45.452Z,15.90
2018-05-26T01:07:13.728Z,15.70
2018-05-26T01:09:41.218Z,15.70
2018-05-26T01:12:09.458Z,15.80
2018-05-26T01:14:36.946Z,15.80
2018-05-26T01:17:04.438Z,15.90
2018-05-26T01:19:31.915Z,15.90
2018-05-26T01:21:59.420Z,15.80
2018-05-26T01:24:26.903Z,15.70
2018-05-26T01:26:55.154Z,15.60
2018-05-26T01:29:22.664Z,15.60
2018-05-26T01:31:50.155Z,15.60
2018-05-26T01:34:17.648Z,15.60
2018-05-26T01:36:45.153Z,15.60
2018-05-26T01:39:13.401Z,15.60
2018-05-26T01:41:40.906Z,15.60
2018-05-26T01:44:08.412Z,15.70
2018-05-26T01:46:35.886Z,15.70
2018-05-26T01:49:03.368Z,15.70
2018-05-26T01:51:30.858Z,15.80
2018-05-26T01:53:58.332Z,15.70
2018-05-26T01:56:25.821Z,15.60
2018-05-26T01:58:53.323Z,15.50
2018-05-26T02:01:20.825Z,15.50
2018-05-26T02:03:48.319Z,15.50
2018-05-26T02:06:15.818Z,15.40
2018-05-26T02:08:43.329Z,15.40
2018-05-26T02:11:10.807Z,15.50
2018-05-26T02:13:38.305Z,15.60
2018-05-26T02:16:06.565Z,15.60
2018-05-26T02:18:34.057Z,15.60
2018-05-26T02:21:02.313Z,15.50
2018-05-26T02:23:29.800Z,15.50
2018-05-26T02:25:58.082Z,15.60
2018-05-26T02:28:26.373Z,15.50
2018-05-26T02:30:53.863Z,15.50
2018-05-26T02:33:21.353Z,15.50
2018-05-26T02:35:48.851Z,15.50
2018-05-26T02:38:16.339Z,15.50
2018-05-26T02:40:43.810Z,15.50
2018-05-26T02:43:11.306Z,15.40
2018-05-26T02:45:38.792Z,15.30
2018-05-26T02:48:07.058Z,15.30
2018-05-26T02:50:34.544Z,15.30
2018-05-26T02:53:02.800Z,15.30
2018-05-26T02:55:30.302Z,15.30
2018-05-26T02:57:57.785Z,15.30
2018-05-26T03:00:25.266Z,15.30
2018-05-26T03:02:52.758Z,15.30
2018-05-26T03:05:25.799Z,15.20
2018-05-26T03:07:59.106Z,15.20
2018-05-26T03:10:32.318Z,15.20
2018-05-26T03:13:05.633Z,15.20
2018-05-26T03:15:33.114Z,15.30
2018-05-26T03:18:05.184Z,15.30
2018-05-26T03:20:33.449Z,15.20
2018-05-26T03:23:01.700Z,15.20
2018-05-26T03:25:29.194Z,15.20
2018-05-26T03:27:57.436Z,15.10
2018-05-26T03:30:24.919Z,15.00
2018-05-26T03:32:52.422Z,15.10
2018-05-26T03:35:19.922Z,15.00
2018-05-26T03:37:47.413Z,14.90
2018-05-26T03:40:14.907Z,14.80
2018-05-26T03:42:43.158Z,14.80
2018-05-26T03:45:10.631Z,14.70
2018-05-26T03:47:38.896Z,14.90
2018-05-26T03:50:06.375Z,14.90
2018-05-26T03:52:34.619Z,14.90
2018-05-26T03:58:19.559Z,14.90
2018-05-26T04:00:47.046Z,15.00
2018-05-26T04:03:14.525Z,15.10
2018-05-26T04:05:42.058Z,15.00
2018-05-26T04:08:09.533Z,15.00
2018-05-26T04:10:37.011Z,15.00
2018-05-26T04:13:04.516Z,15.10
2018-05-26T04:15:32.021Z,15.10
2018-05-26T04:17:59.525Z,15.10
2018-05-26T04:20:27.792Z,15.10
2018-05-26T04:22:55.275Z,15.10
2018-05-26T04:25:23.522Z,15.20
2018-05-26T04:27:51.015Z,15.10
2018-05-26T04:30:19.251Z,15.20
2018-05-26T04:32:46.730Z,15.20
2018-05-26T04:35:14.239Z,15.20
2018-05-26T04:37:41.721Z,15.20
2018-05-26T04:40:09.199Z,15.20
2018-05-26T04:42:36.696Z,15.30
2018-05-26T04:45:04.191Z,15.30
2018-05-26T04:47:31.672Z,15.30
2018-05-26T04:49:59.187Z,15.30
2018-05-26T04:52:27.452Z,15.40
2018-05-26T04:54:55.761Z,15.50
2018-05-26T04:57:24.057Z,15.50
2018-05-26T04:59:51.535Z,15.50
2018-05-26T05:02:19.020Z,15.60
2018-05-26T05:04:46.504Z,15.60
2018-05-26T05:07:13.986Z,15.70
2018-05-26T05:09:42.263Z,15.80
2018-05-26T05:12:09.742Z,15.80
2018-05-26T05:14:37.998Z,15.90
2018-05-26T05:17:05.498Z,15.90
2018-05-26T05:19:32.993Z,16.10
2018-05-26T05:22:00.472Z,16.20
2018-05-26T05:24:27.959Z,16.30
2018-05-26T05:26:55.451Z,16.20
2018-05-26T05:29:22.938Z,16.30
2018-05-26T05:31:50.435Z,16.40
2018-05-26T05:34:17.937Z,16.40
2018-05-26T05:36:45.424Z,16.50
2018-05-26T05:39:12.933Z,16.50
2018-05-26T05:41:40.430Z,16.50
2018-05-26T05:44:07.913Z,16.50
2018-05-26T05:46:35.421Z,16.70
2018-05-26T05:49:02.910Z,16.80
2018-05-26T05:51:30.399Z,16.80
2018-05-26T05:53:57.903Z,16.80
2018-05-26T05:56:25.384Z,16.90
2018-05-26T05:58:53.645Z,16.90
2018-05-26T06:01:21.168Z,16.90
2018-05-26T06:03:48.662Z,16.90
2018-05-26T06:06:16.148Z,17.00
2018-05-26T06:08:44.414Z,17.20
2018-05-26T06:11:11.909Z,17.20
2018-05-26T06:13:40.158Z,17.50
2018-05-26T06:16:07.676Z,17.50
2018-05-26T06:18:35.185Z,17.70
2018-05-26T06:21:02.666Z,18.00
2018-05-26T06:23:30.944Z,18.60
2018-05-26T06:25:59.196Z,18.80
2018-05-26T06:28:26.682Z,18.80
2018-05-26T06:30:54.184Z,18.90
2018-05-26T06:33:21.672Z,18.90
2018-05-26T06:35:49.179Z,18.90
2018-05-26T06:38:17.478Z,18.80
2018-05-26T06:40:44.964Z,18.80
2018-05-26T06:43:12.444Z,18.80
2018-05-26T06:45:39.950Z,18.80
2018-05-26T06:48:08.204Z,18.80
2018-05-26T06:50:35.684Z,18.80
2018-05-26T06:53:03.187Z,18.80
2018-05-26T06:55:30.683Z,19.10
2018-05-26T06:57:58.167Z,19.30
2018-05-26T07:00:25.674Z,19.40
2018-05-26T07:02:53.163Z,19.60
2018-05-26T07:05:20.666Z,19.70
2018-05-26T07:07:48.943Z,19.70
2018-05-26T07:10:16.430Z,19.70
2018-05-26T07:12:43.921Z,19.50
2018-05-26T07:15:11.435Z,19.50
2018-05-26T07:17:39.687Z,19.60
2018-05-26T07:20:07.177Z,19.60
2018-05-26T07:22:35.435Z,19.80
2018-05-26T07:25:02.935Z,19.80
2018-05-26T07:27:31.213Z,20.20
2018-05-26T07:29:59.473Z,20.20
2018-05-26T07:32:26.971Z,20.10
2018-05-26T07:34:54.477Z,20.20
2018-05-26T07:37:21.966Z,20.20
2018-05-26T07:39:49.457Z,20.30
2018-05-26T07:42:17.746Z,20.60
2018-05-26T07:44:45.241Z,20.60
2018-05-26T07:47:12.772Z,20.70
2018-05-26T07:49:40.247Z,20.80
2018-05-26T07:52:07.749Z,21.10
2018-05-26T07:54:35.255Z,21.30
2018-05-26T07:57:03.500Z,21.50
2018-05-26T07:59:31.004Z,21.50
2018-05-26T08:01:58.495Z,21.60
2018-05-26T08:04:26.002Z,21.80
2018-05-26T08:06:54.271Z,21.50
2018-05-26T08:09:21.773Z,21.50
2018-05-26T08:11:49.284Z,21.70
2018-05-26T08:14:16.786Z,21.90
2018-05-26T08:16:45.064Z,22.20
2018-05-26T08:19:13.323Z,22.20
2018-05-26T08:21:40.828Z,22.20
2018-05-26T08:24:08.344Z,22.20
2018-05-26T08:26:35.847Z,22.20
2018-05-26T08:29:03.354Z,22.10
2018-05-26T08:31:30.869Z,22.10
2018-05-26T08:33:58.359Z,22.10
2018-05-26T08:36:25.857Z,22.00
2018-05-26T08:38:53.355Z,21.90
2018-05-26T08:41:21.603Z,22.20
2018-05-26T08:43:49.104Z,22.30
2018-05-26T08:46:17.367Z,22.60
2018-05-26T08:48:44.839Z,22.60
2018-05-26T08:51:13.091Z,22.60
2018-05-26T08:53:40.580Z,22.60
2018-05-26T08:56:08.076Z,22.80
2018-05-26T08:58:35.600Z,23.00
2018-05-26T09:01:03.867Z,23.30
2018-05-26T09:03:31.370Z,23.30
2018-05-26T09:05:58.885Z,23.60
2018-05-26T09:08:26.413Z,23.80
2018-05-26T09:10:53.919Z,23.90
2018-05-26T09:13:22.207Z,24.00
2018-05-26T09:15:49.693Z,23.90
2018-05-26T09:18:17.194Z,23.70
2018-05-26T09:20:44.695Z,23.60
2018-05-26T09:23:12.184Z,23.70
2018-05-26T09:25:40.446Z,23.80
2018-05-26T09:28:08.726Z,24.10
2018-05-26T09:30:37.000Z,24.20
2018-05-26T09:33:04.488Z,24.20
2018-05-26T09:35:31.996Z,24.30
2018-05-26T09:38:00.260Z,24.50
2018-05-26T09:40:27.761Z,24.50
2018-05-26T09:42:55.260Z,24.80
2018-05-26T09:45:23.512Z,25.00
2018-05-26T09:47:51.000Z,25.00
2018-05-26T09:50:19.272Z,25.00
2018-05-26T09:52:47.530Z,25.10
2018-05-26T09:55:15.020Z,25.10
2018-05-26T09:57:42.516Z,25.30
2018-05-26T10:00:10.013Z,25.20
2018-05-26T10:02:37.526Z,25.20
2018-05-26T10:05:05.017Z,25.20
2018-05-26T10:07:32.496Z,25.20
2018-05-26T10:10:00.007Z,25.20
2018-05-26T10:12:27.497Z,25.30
2018-05-26T10:14:54.975Z,25.00
2018-05-26T10:17:22.489Z,24.80
2018-05-26T10:19:50.750Z,24.80
2018-05-26T10:22:18.241Z,24.70
2018-05-26T10:24:46.494Z,24.70
2018-05-26T10:27:14.075Z,24.70
2018-05-26T10:29:41.592Z,24.80
2018-05-26T10:32:09.107Z,24.80
2018-05-26T10:34:37.395Z,24.90
2018-05-26T10:37:04.893Z,24.90
2018-05-26T10:39:32.383Z,25.00
2018-05-26T10:41:59.891Z,25.00
2018-05-26T10:44:27.383Z,25.20
2018-05-26T10:46:54.867Z,25.20
2018-05-26T10:49:22.379Z,25.10
2018-05-26T10:51:49.870Z,25.20
2018-05-26T10:54:17.360Z,25.30
2018-05-26T10:56:44.859Z,25.50
2018-05-26T10:59:13.108Z,25.60
2018-05-26T11:01:40.617Z,25.60
2018-05-26T11:04:08.135Z,25.90
2018-05-26T11:06:46.387Z,26.10
2018-05-26T11:09:13.927Z,26.20
2018-05-26T11:11:41.438Z,26.30
2018-05-26T11:14:08.933Z,26.60
2018-05-26T11:16:36.493Z,26.60
2018-05-26T11:19:04.033Z,26.60
2018-05-26T11:21:37.502Z,26.50
2018-05-26T11:24:05.283Z,26.50
2018-05-26T11:26:40.431Z,26.50
2018-05-26T11:29:08.788Z,26.40
2018-05-26T11:31:38.622Z,26.40
2018-05-26T11:34:06.123Z,26.30
2018-05-26T11:36:33.656Z,26.30
2018-05-26T11:39:01.281Z,26.30
2018-05-26T11:41:30.727Z,26.20
2018-05-26T11:43:58.297Z,26.20
2018-05-26T11:46:25.896Z,26.30
2018-05-26T11:48:53.426Z,26.20
2018-05-26T11:51:20.926Z,26.40
2018-05-26T11:53:48.436Z,26.70
2018-05-26T11:56:15.949Z,26.50
2018-05-26T11:58:43.444Z,26.40
2018-05-26T12:01:11.754Z,26.50
2018-05-26T12:03:39.286Z,26.50
2018-05-26T12:06:07.550Z,26.30
2018-05-26T12:08:35.090Z,26.30
2018-05-26T12:11:02.633Z,26.30
2018-05-26T12:13:30.862Z,26.40
2018-05-26T12:15:58.341Z,26.40
2018-05-26T12:18:26.614Z,26.50
2018-05-26T12:20:54.890Z,26.50
2018-05-26T12:23:23.151Z,26.50
2018-05-26T12:25:50.644Z,26.60
2018-05-26T12:28:18.941Z,26.70
2018-05-26T12:30:47.381Z,26.60
2018-05-26T12:33:14.907Z,26.60
2018-05-26T12:35:42.451Z,26.70
2018-05-26T12:38:09.961Z,27.00
2018-05-26T12:40:37.463Z,27.10
2018-05-26T12:43:05.752Z,27.60
2018-05-26T12:45:34.017Z,27.60
2018-05-26T12:48:02.276Z,27.80
2018-05-26T12:50:29.811Z,27.80
2018-05-26T12:52:57.324Z,27.80
2018-05-26T12:55:25.576Z,27.90
2018-05-26T12:57:53.095Z,27.90
2018-05-26T13:00:20.576Z,27.80
2018-05-26T13:02:48.066Z,28.00
2018-05-26T13:05:15.569Z,27.90
2018-05-26T13:07:43.822Z,28.10
2018-05-26T13:10:11.322Z,28.10
2018-05-26T13:12:39.656Z,28.00
2018-05-26T13:15:07.164Z,27.90
2018-05-26T13:17:34.676Z,28.10
2018-05-26T13:20:02.196Z,28.10
2018-05-26T13:22:29.708Z,28.00
2018-05-26T13:24:57.198Z,27.80
2018-05-26T13:27:24.712Z,27.70
2018-05-26T13:29:52.220Z,27.80
2018-05-26T13:32:20.485Z,28.00
2018-05-26T13:34:47.997Z,27.90
2018-05-26T13:37:15.513Z,28.00
2018-05-26T13:39:43.024Z,27.80
2018-05-26T13:42:10.535Z,27.90
2018-05-26T13:44:38.041Z,27.70
2018-05-26T13:47:06.329Z,27.00
2018-05-26T13:49:33.859Z,27.00
2018-05-26T13:52:01.366Z,26.80
2018-05-26T13:54:28.999Z,26.90
2018-05-26T13:56:56.383Z,27.10
2018-05-26T13:59:23.893Z,27.50
2018-05-26T14:01:51.401Z,28.10
2018-05-26T14:04:18.917Z,28.40
2018-05-26T14:06:46.425Z,28.40
2018-05-26T14:09:13.926Z,28.20
2018-05-26T14:11:41.427Z,28.20
2018-05-26T14:14:08.947Z,28.60
2018-05-26T14:16:36.493Z,28.90
2018-05-26T14:19:03.959Z,29.10
2018-05-26T14:21:31.497Z,28.90
2018-05-26T14:23:59.771Z,28.50
2018-05-26T14:26:31.268Z,28.40
2018-05-26T14:28:58.767Z,28.40
2018-05-26T14:31:26.283Z,28.70
2018-05-26T14:33:53.805Z,29.30
2018-05-26T14:36:21.359Z,29.70
2018-05-26T14:38:48.863Z,30.10
2018-05-26T14:41:16.380Z,30.50
2018-05-26T14:43:43.887Z,30.80
2018-05-26T14:46:11.409Z,31.40
2018-05-26T14:48:38.925Z,31.80
2018-05-26T14:51:06.422Z,32.00
2018-05-26T14:53:33.931Z,32.30
2018-05-26T14:56:02.217Z,32.60
2018-05-26T14:58:30.523Z,32.60
2018-05-26T15:00:58.005Z,32.60
2018-05-26T15:03:25.535Z,32.70
2018-05-26T15:05:53.055Z,33.10
2018-05-26T15:08:20.570Z,33.40
2018-05-26T15:10:48.088Z,33.30
2018-05-26T15:13:15.705Z,33.10
2018-05-26T15:15:43.113Z,32.40
2018-05-26T15:18:10.621Z,32.20
2018-05-26T15:20:38.144Z,32.40
2018-05-26T15:23:05.666Z,32.50
2018-05-26T15:25:33.184Z,32.70
2018-05-26T15:28:00.696Z,32.20
2018-05-26T15:30:28.198Z,31.90
2018-05-26T15:32:55.724Z,31.60
2018-05-26T15:35:23.250Z,31.60
2018-05-26T15:37:51.521Z,31.20
2018-05-26T15:40:19.789Z,31.30
2018-05-26T15:42:47.305Z,31.40
2018-05-26T15:45:14.807Z,31.40
2018-05-26T15:47:42.310Z,31.20
2018-05-26T15:50:10.587Z,31.10
2018-05-26T15:52:38.099Z,31.00
2018-05-26T15:55:05.597Z,31.20
2018-05-26T15:57:33.100Z,31.20
2018-05-26T16:00:00.654Z,31.10
2018-05-26T16:02:28.127Z,30.80
2018-05-26T16:04:55.623Z,30.10
2018-05-26T16:07:23.127Z,29.40
2018-05-26T16:09:51.408Z,28.50
2018-05-26T16:12:19.675Z,28.10
2018-05-26T16:14:47.939Z,27.60
2018-05-26T16:17:15.449Z,27.60
2018-05-26T16:19:42.957Z,27.40
2018-05-26T16:22:10.453Z,27.20
2018-05-26T16:24:38.705Z,26.80
2018-05-26T16:27:06.208Z,26.80
2018-05-26T16:29:33.697Z,26.60
2018-05-26T16:32:01.193Z,26.30
2018-05-26T16:34:28.710Z,26.20
2018-05-26T16:36:56.204Z,26.10
2018-05-26T16:39:23.732Z,26.10
2018-05-26T16:41:51.219Z,26.10
2018-05-26T16:44:18.704Z,26.10
2018-05-26T16:46:46.223Z,26.00
2018-05-26T16:49:13.737Z,26.00
2018-05-26T16:51:41.245Z,26.00
2018-05-26T16:54:08.746Z,25.90
2018-05-26T16:56:36.225Z,26.00
2018-05-26T16:59:03.733Z,25.90
2018-05-26T17:01:31.231Z,25.90
2018-05-26T17:03:58.735Z,25.90
2018-05-26T17:06:26.998Z,25.90
2018-05-26T17:08:54.488Z,25.90
2018-05-26T17:11:22.733Z,25.70
2018-05-26T17:13:50.243Z,25.60
2018-05-26T17:16:18.505Z,25.50
2018-05-26T17:18:46.762Z,25.40
2018-05-26T17:21:14.265Z,25.40
2018-05-26T17:23:41.777Z,25.40
2018-05-26T17:26:09.260Z,25.30
2018-05-26T17:28:39.903Z,25.30
2018-05-26T17:31:08.159Z,25.20
2018-05-26T17:33:35.672Z,25.20
2018-05-26T17:36:03.181Z,25.10
2018-05-26T17:38:30.680Z,25.00
2018-05-26T17:40:58.961Z,24.90
2018-05-26T17:43:26.523Z,24.80
2018-05-26T17:45:53.972Z,24.80
2018-05-26T17:48:21.471Z,24.80
2018-05-26T17:50:48.961Z,24.70
2018-05-26T17:53:16.455Z,24.60
2018-05-26T17:55:43.949Z,24.50
2018-05-26T17:58:11.470Z,24.40
2018-05-26T18:00:38.968Z,24.40
2018-05-26T18:03:07.233Z,24.10
2018-05-26T18:05:34.734Z,24.10
2018-05-26T18:08:02.221Z,24.00
2018-05-26T18:10:29.711Z,24.00
2018-05-26T18:12:57.214Z,23.90
2018-05-26T18:15:24.708Z,23.90
2018-05-26T18:17:52.214Z,23.90
2018-05-26T18:20:19.696Z,23.90
2018-05-26T18:22:47.952Z,23.90
2018-05-26T18:25:15.464Z,23.90
2018-05-26T18:27:42.952Z,23.80
2018-05-26T18:30:10.451Z,23.60
2018-05-26T18:32:38.732Z,23.40
2018-05-26T18:35:06.211Z,23.40
2018-05-26T18:37:34.468Z,23.40
2018-05-26T18:40:01.969Z,23.30
2018-05-26T18:42:29.475Z,23.40
2018-05-26T18:44:56.955Z,23.40
2018-05-26T18:47:24.446Z,23.40
2018-05-26T18:49:51.932Z,23.30
2018-05-26T18:52:19.435Z,23.20
2018-05-26T18:54:46.928Z,23.10
2018-05-26T18:57:15.183Z,23.00
2018-05-26T18:59:42.685Z,23.00
2018-05-26T19:02:10.174Z,22.80
2018-05-26T19:04:37.672Z,22.70
2018-05-26T19:07:05.177Z,22.60
2018-05-26T19:09:32.670Z,22.60
2018-05-26T19:12:00.165Z,22.60
2018-05-26T19:14:27.675Z,22.70
2018-05-26T19:16:55.160Z,22.70
2018-05-26T19:19:22.647Z,22.80
2018-05-26T19:21:50.146Z,22.70
2018-05-26T19:24:17.628Z,22.80
2018-05-26T19:26:45.140Z,22.70
2018-05-26T19:29:12.647Z,22.70
2018-05-26T19:31:40.147Z,22.60
2018-05-26T19:34:07.653Z,22.60
2018-05-26T19:36:35.168Z,22.50
2018-05-26T19:39:02.665Z,22.60
2018-05-26T19:41:30.943Z,22.60
2018-05-26T19:43:58.473Z,22.60
2018-05-26T19:46:25.946Z,22.80
2018-05-26T19:48:53.463Z,22.70
2018-05-26T19:51:20.958Z,22.60
2018-05-26T19:53:48.452Z,22.50
2018-05-26T19:56:15.959Z,21.80
2018-05-26T19:58:43.463Z,20.70
2018-05-26T20:01:10.959Z,19.80
2018-05-26T20:03:38.467Z,18.80
2018-05-26T20:06:05.969Z,17.90
2018-05-26T20:08:33.459Z,17.30
2018-05-26T20:11:01.734Z,16.50
2018-05-26T20:13:29.224Z,16.50
2018-05-26T20:15:56.748Z,16.40
2018-05-26T20:18:24.244Z,16.50
2018-05-26T20:20:51.740Z,16.40
2018-05-26T20:23:20.008Z,16.60
2018-05-26T20:25:47.498Z,16.60
2018-05-26T20:28:14.994Z,16.50
2018-05-26T20:30:43.252Z,16.20
2018-05-26T20:33:10.754Z,16.20
2018-05-26T20:35:38.240Z,16.20
2018-05-26T20:38:05.747Z,16.20
2018-05-26T20:40:33.233Z,16.30
2018-05-26T20:43:00.729Z,16.20
2018-05-26T20:45:28.230Z,16.20
2018-05-26T20:47:55.723Z,16.20
2018-05-26T20:50:23.975Z,16.20
2018-05-26T20:52:51.467Z,16.20
2018-05-26T20:55:19.715Z,16.20
2018-05-26T20:57:47.221Z,16.20
2018-05-26T21:00:14.723Z,16.20
2018-05-26T21:02:42.211Z,16.10
2018-05-26T21:05:09.734Z,16.20
2018-05-26T21:07:37.225Z,16.40
2018-05-26T21:10:04.721Z,16.20
2018-05-26T21:12:32.999Z,16.10
2018-05-26T21:15:01.273Z,16.20
2018-05-26T21:17:29.543Z,16.10
2018-05-26T21:19:57.044Z,16.10
2018-05-26T21:22:24.551Z,15.90
2018-05-26T21:24:52.062Z,15.90
2018-05-26T21:27:19.579Z,15.90
2018-05-26T21:29:47.055Z,15.80
2018-05-26T21:32:14.561Z,15.90
2018-05-26T21:34:42.064Z,15.90
2018-05-26T21:37:09.573Z,15.90
2018-05-26T21:39:37.073Z,15.90
2018-05-26T21:42:04.586Z,16.00
2018-05-26T21:44:32.860Z,16.00
2018-05-26T21:47:01.143Z,16.00
2018-05-26T21:49:29.416Z,16.00
2018-05-26T21:51:56.908Z,16.00
2018-05-26T21:54:24.421Z,15.90
2018-05-26T21:56:51.925Z,15.90
2018-05-26T21:59:20.188Z,15.80
2018-05-26T22:01:47.703Z,15.80
2018-05-26T22:04:15.198Z,15.90
2018-05-26T22:06:42.682Z,16.00
2018-05-26T22:09:10.958Z,16.10
2018-05-26T22:11:38.446Z,16.10
2018-05-26T22:14:05.949Z,16.10
2018-05-26T22:16:34.220Z,15.90
2018-05-26T22:19:01.711Z,15.90
2018-05-26T22:21:29.245Z,15.90
2018-05-26T22:23:56.722Z,15.80
2018-05-26T22:26:24.202Z,15.90
2018-05-26T22:28:51.708Z,16.00
2018-05-26T22:31:19.205Z,16.10
2018-05-26T22:33:46.691Z,16.10
2018-05-26T22:36:14.192Z,16.30
2018-05-26T22:38:42.458Z,16.40
2018-05-26T22:41:10.709Z,16.40
2018-05-26T22:43:38.985Z,16.40
2018-05-26T22:46:06.468Z,16.40
2018-05-26T22:48:33.960Z,16.40
2018-05-26T22:51:02.219Z,16.30
2018-05-26T22:53:29.730Z,16.30
2018-05-26T22:55:57.221Z,16.30
2018-05-26T22:58:24.737Z,16.40
2018-05-26T23:00:52.227Z,16.30
2018-05-26T23:03:19.703Z,16.30
2018-05-26T23:05:47.232Z,16.30
2018-05-26T23:08:15.475Z,16.20
2018-05-26T23:10:42.958Z,16.20
2018-05-26T23:13:11.237Z,16.10
2018-05-26T23:15:39.497Z,16.10
2018-05-26T23:18:07.222Z,16.00
2018-05-26T23:20:34.743Z,16.00
2018-05-26T23:23:03.019Z,15.90
2018-05-26T23:25:30.518Z,15.90
2018-05-26T23:27:58.016Z,16.00
2018-05-26T23:30:25.503Z,16.00
2018-05-26T23:32:52.999Z,16.00
2018-05-26T23:35:20.483Z,15.90
2018-05-26T23:37:48.006Z,15.90
2018-05-26T23:40:16.299Z,15.90
2018-05-26T23:42:43.804Z,15.80
2018-05-26T23:45:11.305Z,15.80
2018-05-26T23:47:38.820Z,15.80
2018-05-26T23:50:06.312Z,15.80
2018-05-26T23:52:33.815Z,15.80
2018-05-26T23:55:01.342Z,15.80
2018-05-26T23:57:28.836Z,15.80
2018-05-26T23:59:57.096Z,15.90
